Portada
METAR-TAF:

METAR-TAF

Aeroports :

Brown Field Municipal Airport

San Diego, Califòrnia, Estats Units d'Amèrica

latitud: 32-34-31N, longitud: 116-59-35W, altitud: 164 m

Observació

L'informe es va fer fa 53 minuts, a les 15:53 UTC
Vent 4 kt del Nord
Temperatura 16°C
Humitat 77%
Pressió 1018 hPa
Visibilitat: 9.7 km
Cel cobert a una alçada de 1000 ft
calitja

METAR: KSDM 271553Z 01004KT 6SM HZ OVC010 16/12 A3005 RMK AO2 SLP174 T01610122

Hora: 09:46 (16:46 UTC)


TAF: manca

Observacions i pronòstics meteorològics de més de 4000 aeroports (METAR i TAF).

Les estacions disponibles són els punts grocs i vermells al mapa.

Posi el ratolí al punt desitjat per veure el nom de l'estació.

Feu clic per veure les observacions i els pronòstics meteorològics.

Per canviar el mapa: feu clic els botons verds amb una creu de color negre per apropar; al botó verd amb un guió per allunyar la imatge; o en les fletxes verdes per a mapes adjacents.


METAR-TAF: